createdAt,value
2018-05-14T00:00:24.832Z,13.50
2018-05-14T00:02:51.214Z,13.50
2018-05-14T00:05:17.619Z,13.50
2018-05-14T00:07:44.156Z,13.40
2018-05-14T00:10:10.546Z,13.30
2018-05-14T00:12:36.916Z,13.30
2018-05-14T00:15:03.310Z,13.20
2018-05-14T00:17:29.671Z,13.10
2018-05-14T00:19:56.064Z,13.10
2018-05-14T00:22:22.463Z,13.00
2018-05-14T00:24:49.592Z,13.00
2018-05-14T00:27:15.996Z,13.00
2018-05-14T00:29:42.367Z,13.00
2018-05-14T00:32:08.797Z,13.00
2018-05-14T00:34:35.167Z,12.90
2018-05-14T00:37:01.679Z,12.90
2018-05-14T00:39:28.056Z,13.00
2018-05-14T00:41:54.447Z,13.00
2018-05-14T00:44:20.863Z,13.00
2018-05-14T00:46:47.244Z,13.00
2018-05-14T00:49:13.659Z,13.00
2018-05-14T00:51:40.778Z,13.00
2018-05-14T00:54:07.164Z,12.90
2018-05-14T00:56:33.564Z,13.00
2018-05-14T00:58:59.952Z,13.00
2018-05-14T01:01:26.353Z,13.10
2018-05-14T01:03:52.757Z,13.10
2018-05-14T01:06:19.163Z,13.20
2018-05-14T01:08:45.543Z,13.20
2018-05-14T01:11:12.671Z,13.20
2018-05-14T01:13:43.326Z,13.20
2018-05-14T01:16:10.576Z,13.30
2018-05-14T01:18:36.958Z,13.20
2018-05-14T01:21:03.365Z,13.30
2018-05-14T01:23:30.505Z,13.30
2018-05-14T01:25:57.628Z,13.30
2018-05-14T01:28:24.047Z,13.30
2018-05-14T01:30:50.459Z,13.30
2018-05-14T01:33:16.951Z,13.30
2018-05-14T01:35:44.080Z,13.30
2018-05-14T01:38:10.489Z,13.30
2018-05-14T01:40:36.879Z,13.30
2018-05-14T01:43:04.000Z,13.30
2018-05-14T01:45:30.412Z,13.30
2018-05-14T01:47:56.809Z,13.30
2018-05-14T01:50:23.949Z,13.40
2018-05-14T01:52:51.087Z,13.40
2018-05-14T01:55:17.506Z,13.40
2018-05-14T01:57:43.895Z,13.50
2018-05-14T02:00:10.315Z,13.40
2018-05-14T02:02:37.477Z,13.50
2018-05-14T02:05:03.865Z,13.40
2018-05-14T02:07:30.265Z,13.40
2018-05-14T02:09:56.649Z,13.40
2018-05-14T02:12:23.878Z,13.40
2018-05-14T02:14:50.247Z,13.40
2018-05-14T02:17:17.383Z,13.50
2018-05-14T02:19:43.791Z,13.40
2018-05-14T02:22:10.160Z,13.40
2018-05-14T02:24:37.287Z,13.40
2018-05-14T02:27:04.421Z,13.40
2018-05-14T02:29:30.842Z,13.40
2018-05-14T02:31:57.274Z,13.40
2018-05-14T02:34:24.000Z,13.40
2018-05-14T02:36:50.437Z,13.40
2018-05-14T02:39:16.808Z,13.40
2018-05-14T02:41:43.218Z,13.40
2018-05-14T02:44:09.591Z,13.40
2018-05-14T02:46:35.978Z,13.40
2018-05-14T02:49:02.412Z,13.50
2018-05-14T02:51:28.812Z,13.50
2018-05-14T02:53:55.939Z,13.40
2018-05-14T02:56:22.313Z,13.40
2018-05-14T02:58:48.710Z,13.50
2018-05-14T03:01:15.075Z,13.40
2018-05-14T03:03:42.209Z,13.50
2018-05-14T03:06:09.332Z,13.50
2018-05-14T03:08:35.736Z,13.40
2018-05-14T03:11:02.145Z,13.50
2018-05-14T03:13:29.280Z,13.50
2018-05-14T03:15:56.509Z,13.50
2018-05-14T03:18:22.876Z,13.40
2018-05-14T03:20:50.004Z,13.50
2018-05-14T03:23:16.391Z,13.40
2018-05-14T03:25:42.784Z,13.50
2018-05-14T03:28:09.897Z,13.40
2018-05-14T03:30:36.318Z,13.40
2018-05-14T03:33:02.725Z,13.40
2018-05-14T03:35:29.099Z,13.40
2018-05-14T03:37:55.556Z,13.40
2018-05-14T03:40:21.944Z,13.40
2018-05-14T03:42:48.341Z,13.50
2018-05-14T03:45:15.460Z,13.50
2018-05-14T03:47:41.831Z,13.40
2018-05-14T03:50:08.974Z,13.50
2018-05-14T03:52:35.359Z,13.50
2018-05-14T03:55:01.769Z,13.50
2018-05-14T03:57:28.177Z,13.50
2018-05-14T04:00:07.608Z,13.60
2018-05-14T04:02:46.317Z,13.50
2018-05-14T04:05:18.583Z,13.50
2018-05-14T04:07:44.977Z,13.60
2018-05-14T04:10:11.360Z,13.60
2018-05-14T04:12:37.782Z,13.60
2018-05-14T04:15:04.173Z,13.60
2018-05-14T04:17:30.576Z,13.70
2018-05-14T04:19:56.959Z,13.70
2018-05-14T04:22:23.331Z,13.60
2018-05-14T04:24:49.714Z,13.60
2018-05-14T04:27:16.138Z,13.60
2018-05-14T04:29:42.540Z,13.70
2018-05-14T04:32:08.909Z,13.70
2018-05-14T04:34:35.387Z,13.70
2018-05-14T04:37:01.782Z,13.70
2018-05-14T04:39:28.192Z,13.70
2018-05-14T04:41:55.336Z,13.70
2018-05-14T04:44:21.739Z,13.70
2018-05-14T04:46:48.168Z,13.70
2018-05-14T04:49:14.578Z,13.70
2018-05-14T04:51:40.947Z,13.70
2018-05-14T04:54:07.337Z,13.70
2018-05-14T04:56:33.736Z,13.70
2018-05-14T04:59:00.171Z,13.70
2018-05-14T05:01:26.568Z,13.70
2018-05-14T05:03:52.931Z,13.70
2018-05-14T05:06:19.320Z,13.70
2018-05-14T05:08:45.705Z,13.70
2018-05-14T05:11:12.096Z,13.80
2018-05-14T05:13:38.507Z,13.70
2018-05-14T05:16:04.877Z,13.70
2018-05-14T05:18:31.288Z,13.80
2018-05-14T05:20:57.676Z,13.80
2018-05-14T05:23:24.062Z,13.80
2018-05-14T05:25:50.421Z,13.80
2018-05-14T05:28:16.843Z,13.80
2018-05-14T05:30:43.244Z,13.90
2018-05-14T05:33:09.605Z,13.90
2018-05-14T05:35:35.991Z,14.00
2018-05-14T05:38:03.241Z,14.00
2018-05-14T05:40:29.615Z,14.00
2018-05-14T05:42:56.025Z,14.20
2018-05-14T05:45:22.504Z,14.30
2018-05-14T05:47:48.888Z,14.50
2018-05-14T05:50:16.010Z,14.50
2018-05-14T05:52:42.397Z,14.50
2018-05-14T05:55:08.814Z,14.50
2018-05-14T05:57:35.189Z,14.60
2018-05-14T06:00:01.614Z,14.70
2018-05-14T06:02:28.003Z,14.70
2018-05-14T06:04:55.121Z,14.90
2018-05-14T06:07:21.520Z,14.90
2018-05-14T06:09:47.889Z,14.80
2018-05-14T06:12:14.287Z,14.80
2018-05-14T06:14:40.697Z,14.90
2018-05-14T06:17:07.075Z,14.80
2018-05-14T06:19:33.455Z,14.90
2018-05-14T06:22:00.580Z,14.90
2018-05-14T06:24:26.967Z,14.80
2018-05-14T06:26:53.332Z,14.90
2018-05-14T06:29:19.732Z,14.80
2018-05-14T06:31:46.104Z,14.90
2018-05-14T06:34:12.505Z,14.80
2018-05-14T06:36:38.876Z,14.90
2018-05-14T06:39:05.779Z,15.00
2018-05-14T06:41:32.179Z,15.00
2018-05-14T06:43:59.356Z,15.00
2018-05-14T06:46:25.783Z,14.90
2018-05-14T06:48:52.894Z,15.00
2018-05-14T06:51:19.312Z,15.00
2018-05-14T06:53:45.700Z,15.00
2018-05-14T06:56:12.831Z,14.90
2018-05-14T06:58:39.199Z,14.90
2018-05-14T07:01:05.776Z,15.00
2018-05-14T07:03:32.063Z,15.10
2018-05-14T07:05:58.439Z,15.20
2018-05-14T07:08:24.837Z,15.20
2018-05-14T07:10:51.204Z,15.30
2018-05-14T07:13:17.621Z,15.40
2018-05-14T07:15:44.009Z,15.50
2018-05-14T07:18:11.165Z,15.80
2018-05-14T07:20:38.316Z,15.80
2018-05-14T07:23:05.464Z,16.00
2018-05-14T07:25:32.665Z,16.30
2018-05-14T07:27:59.029Z,16.20
2018-05-14T07:30:25.421Z,16.50
2018-05-14T07:32:51.828Z,16.70
2018-05-14T07:35:18.992Z,17.10
2018-05-14T07:37:45.404Z,17.00
2018-05-14T07:40:12.564Z,17.30
2018-05-14T07:42:39.709Z,17.30
2018-05-14T07:45:06.825Z,17.30
2018-05-14T07:47:33.289Z,17.20
2018-05-14T07:49:59.668Z,17.30
2018-05-14T07:52:26.080Z,17.60
2018-05-14T07:54:52.496Z,17.80
2018-05-14T07:57:19.649Z,18.00
2018-05-14T07:59:46.792Z,18.30
2018-05-14T08:02:13.403Z,18.20
2018-05-14T08:04:39.803Z,18.10
2018-05-14T08:07:06.164Z,17.80
2018-05-14T08:09:32.598Z,17.70
2018-05-14T08:11:58.979Z,17.70
2018-05-14T08:14:26.113Z,17.80
2018-05-14T08:16:52.496Z,17.80
2018-05-14T08:19:18.916Z,17.90
2018-05-14T08:21:45.322Z,17.80
2018-05-14T08:24:11.681Z,18.00
2018-05-14T08:26:38.096Z,18.20
2018-05-14T08:29:05.212Z,18.30
2018-05-14T08:31:31.624Z,18.30
2018-05-14T08:33:58.001Z,18.20
2018-05-14T08:37:33.989Z,18.10
2018-05-14T08:40:01.141Z,18.00
2018-05-14T08:42:28.340Z,18.00
2018-05-14T08:44:55.448Z,17.90
2018-05-14T08:47:22.588Z,17.90
2018-05-14T08:49:49.765Z,17.90
2018-05-14T08:52:16.150Z,17.80
2018-05-14T08:54:42.555Z,18.10
2018-05-14T08:57:08.967Z,17.90
2018-05-14T08:59:35.361Z,18.00
2018-05-14T09:02:01.745Z,18.20
2018-05-14T09:04:28.115Z,18.40
2018-05-14T09:06:54.535Z,18.50
2018-05-14T09:09:20.916Z,18.80
2018-05-14T09:11:48.048Z,19.20
2018-05-14T09:14:14.460Z,19.10
2018-05-14T09:16:40.819Z,19.10
2018-05-14T09:19:07.236Z,19.00
2018-05-14T09:21:33.629Z,18.80
2018-05-14T09:24:00.032Z,18.80
2018-05-14T09:26:27.152Z,19.20
2018-05-14T09:28:53.548Z,19.20
2018-05-14T09:31:20.010Z,19.60
2018-05-14T09:33:47.076Z,20.10
2018-05-14T09:36:13.467Z,20.10
2018-05-14T09:38:39.854Z,20.50
2018-05-14T09:41:07.015Z,20.70
2018-05-14T09:43:34.172Z,20.70
2018-05-14T09:46:01.338Z,20.90
2018-05-14T09:48:27.760Z,20.90
2018-05-14T09:50:54.896Z,21.20
2018-05-14T09:53:21.295Z,21.10
2018-05-14T09:55:47.664Z,21.20
2018-05-14T09:58:14.053Z,21.30
2018-05-14T10:00:40.423Z,21.30
2018-05-14T10:03:06.826Z,21.00
2018-05-14T10:05:33.201Z,21.30
2018-05-14T10:08:00.351Z,21.00
2018-05-14T10:10:26.739Z,21.00
2018-05-14T10:12:53.123Z,21.10
2018-05-14T10:15:20.262Z,20.80
2018-05-14T10:17:46.636Z,20.80
2018-05-14T10:20:13.029Z,20.60
2018-05-14T10:22:39.501Z,20.70
2018-05-14T10:25:05.877Z,21.00
2018-05-14T10:27:32.292Z,20.70
2018-05-14T10:29:58.667Z,20.70
2018-05-14T10:32:25.049Z,21.00
2018-05-14T10:34:51.420Z,21.10
2018-05-14T10:37:17.832Z,21.20
2018-05-14T10:39:44.237Z,21.10
2018-05-14T10:42:10.629Z,21.10
2018-05-14T10:44:37.054Z,21.40
2018-05-14T10:47:03.452Z,21.50
2018-05-14T10:49:29.876Z,21.80
2018-05-14T10:51:56.271Z,22.20
2018-05-14T10:54:22.670Z,22.40
2018-05-14T10:56:49.073Z,22.70
2018-05-14T10:59:15.513Z,22.70
2018-05-14T11:01:41.711Z,22.70
2018-05-14T11:04:07.961Z,22.30
2018-05-14T11:06:34.147Z,22.60
2018-05-14T11:09:00.428Z,22.80
2018-05-14T11:11:27.363Z,22.40
2018-05-14T11:13:54.322Z,22.30
2018-05-14T11:16:20.567Z,22.30
2018-05-14T11:18:46.838Z,22.60
2018-05-14T11:21:13.014Z,22.30
2018-05-14T11:23:39.959Z,22.90
2018-05-14T11:26:06.961Z,22.80
2018-05-14T11:28:33.161Z,22.80
2018-05-14T11:30:59.380Z,22.90
2018-05-14T11:33:25.610Z,22.30
2018-05-14T11:35:51.981Z,23.10
2018-05-14T11:38:18.384Z,23.20
2018-05-14T11:40:44.758Z,22.50
2018-05-14T11:43:11.143Z,22.70
2018-05-14T11:45:37.507Z,23.00
2018-05-14T11:48:03.948Z,23.00
2018-05-14T11:50:30.362Z,23.40
2018-05-14T11:52:56.783Z,23.60
2018-05-14T11:55:23.149Z,23.80
2018-05-14T11:57:49.670Z,24.10
2018-05-14T12:00:16.067Z,24.00
2018-05-14T12:02:43.205Z,23.90
2018-05-14T12:05:10.344Z,23.40
2018-05-14T12:07:36.711Z,23.40
2018-05-14T12:10:03.227Z,23.00
2018-05-14T12:12:29.565Z,23.20
2018-05-14T12:14:56.945Z,23.20
2018-05-14T12:17:24.184Z,23.40
2018-05-14T12:19:50.571Z,23.30
2018-05-14T12:22:16.967Z,23.50
2018-05-14T12:24:43.364Z,23.30
2018-05-14T12:27:10.524Z,23.40
2018-05-14T12:29:37.686Z,23.40
2018-05-14T12:32:04.945Z,23.80
2018-05-14T12:34:31.285Z,23.70
2018-05-14T12:36:57.704Z,23.40
2018-05-14T12:39:24.866Z,24.10
2018-05-14T12:41:51.255Z,24.00
2018-05-14T12:44:17.652Z,23.90
2018-05-14T12:46:44.026Z,23.50
2018-05-14T12:49:10.433Z,23.50
2018-05-14T12:51:36.815Z,23.30
2018-05-14T12:54:04.026Z,24.30
2018-05-14T12:56:30.559Z,24.20
2018-05-14T12:58:56.955Z,24.10
2018-05-14T13:01:23.386Z,25.00
2018-05-14T13:03:50.503Z,23.80
2018-05-14T13:06:16.944Z,23.80
2018-05-14T13:08:43.379Z,23.40
2018-05-14T13:11:09.795Z,22.80
2018-05-14T13:13:36.049Z,22.10
2018-05-14T13:16:02.338Z,22.20
2018-05-14T13:18:28.559Z,21.90
2018-05-14T13:20:54.783Z,22.10
2018-05-14T13:23:21.031Z,22.30
2018-05-14T13:25:47.226Z,22.40
2018-05-14T13:28:14.191Z,22.40
2018-05-14T13:30:40.405Z,22.40
2018-05-14T13:33:06.633Z,22.20
2018-05-14T13:35:33.588Z,21.80
2018-05-14T13:37:59.862Z,21.80
2018-05-14T13:40:26.059Z,21.40
2018-05-14T13:42:52.253Z,21.10
2018-05-14T13:45:18.506Z,20.70
2018-05-14T13:47:44.704Z,20.60
2018-05-14T13:50:10.945Z,20.30
2018-05-14T13:52:37.911Z,20.30
2018-05-14T13:55:04.130Z,20.20
2018-05-14T13:57:30.362Z,20.40
2018-05-14T13:59:57.294Z,20.80
2018-05-14T14:02:24.266Z,21.00
2018-05-14T14:04:50.525Z,20.90
2018-05-14T14:07:16.715Z,21.30
2018-05-14T14:09:43.652Z,21.90
2018-05-14T14:12:09.887Z,21.80
2018-05-14T14:14:36.845Z,22.80
2018-05-14T14:17:03.059Z,22.70
2018-05-14T14:19:29.307Z,23.60
2018-05-14T14:21:55.515Z,22.90
2018-05-14T14:24:22.685Z,23.00
2018-05-14T14:26:49.068Z,22.90
2018-05-14T14:29:15.487Z,23.00
2018-05-14T14:31:41.871Z,23.40
2018-05-14T14:34:08.976Z,22.70
2018-05-14T14:36:35.363Z,22.60
2018-05-14T14:39:02.565Z,22.90
2018-05-14T14:41:28.964Z,22.90
2018-05-14T14:43:55.336Z,22.80
2018-05-14T14:46:21.750Z,22.60
2018-05-14T14:48:48.121Z,23.00
2018-05-14T14:51:14.551Z,23.20
2018-05-14T14:53:40.980Z,23.20
2018-05-14T14:56:07.351Z,22.90
2018-05-14T14:58:34.480Z,22.80
2018-05-14T15:01:00.860Z,22.70
2018-05-14T15:03:27.271Z,22.30
2018-05-14T15:05:54.387Z,22.00
2018-05-14T15:08:20.797Z,22.00
2018-05-14T15:10:47.194Z,21.80
2018-05-14T15:13:14.320Z,21.80
2018-05-14T15:15:40.717Z,21.70
2018-05-14T15:18:07.127Z,21.60
2018-05-14T15:20:33.516Z,21.50
2018-05-14T15:22:59.896Z,21.60
2018-05-14T15:25:26.312Z,21.70
2018-05-14T15:27:53.456Z,22.10
2018-05-14T15:30:20.575Z,21.50
2018-05-14T15:32:46.798Z,21.40
2018-05-14T15:35:13.022Z,21.90
2018-05-14T15:37:39.250Z,21.90
2018-05-14T15:40:05.628Z,21.30
2018-05-14T15:42:32.591Z,20.90
2018-05-14T15:44:59.525Z,20.40
2018-05-14T15:47:26.500Z,20.30
2018-05-14T15:49:52.726Z,20.30
2018-05-14T15:52:18.954Z,20.30
2018-05-14T15:54:45.226Z,19.80
2018-05-14T15:57:11.439Z,20.00
2018-05-14T15:59:37.712Z,20.00
2018-05-14T16:02:03.940Z,19.30
2018-05-14T16:04:30.199Z,19.20
2018-05-14T16:06:57.148Z,19.10
2018-05-14T16:09:23.386Z,19.00
2018-05-14T16:11:49.624Z,19.10
2018-05-14T16:14:15.811Z,19.00
2018-05-14T16:16:42.030Z,19.00
2018-05-14T16:19:08.227Z,19.10
2018-05-14T16:21:34.444Z,19.20
2018-05-14T16:24:00.666Z,19.30
2018-05-14T16:26:26.879Z,19.30
2018-05-14T16:28:53.851Z,19.20
2018-05-14T16:31:20.063Z,19.20
2018-05-14T16:33:46.300Z,19.30
2018-05-14T16:36:15.122Z,19.30
2018-05-14T16:38:41.440Z,19.20
2018-05-14T16:41:07.673Z,19.20
2018-05-14T16:43:33.867Z,19.30
2018-05-14T16:46:00.844Z,19.30
2018-05-14T16:48:27.107Z,19.30
2018-05-14T16:50:53.315Z,19.30
2018-05-14T16:53:19.540Z,19.30
2018-05-14T16:55:45.772Z,19.30
2018-05-14T16:58:12.028Z,19.40
2018-05-14T17:00:38.260Z,19.20
2018-05-14T17:03:04.546Z,19.00
2018-05-14T17:05:30.798Z,18.70
2018-05-14T17:07:57.003Z,18.90
2018-05-14T17:10:23.305Z,18.90
2018-05-14T17:12:49.469Z,18.60
2018-05-14T17:15:15.686Z,18.60
2018-05-14T17:17:42.628Z,18.60
2018-05-14T17:20:09.607Z,18.40
2018-05-14T17:22:35.801Z,18.40
2018-05-14T17:25:02.780Z,18.40
2018-05-14T17:27:28.991Z,18.40
2018-05-14T17:29:55.215Z,18.40
2018-05-14T17:32:22.181Z,18.50
2018-05-14T17:34:48.388Z,18.40
2018-05-14T17:37:15.348Z,18.40
2018-05-14T17:39:41.559Z,18.30
2018-05-14T17:42:08.519Z,18.30
2018-05-14T17:44:34.738Z,18.30
2018-05-14T17:47:01.741Z,18.20
2018-05-14T17:49:27.945Z,18.20
2018-05-14T17:51:54.188Z,18.20
2018-05-14T17:54:20.436Z,18.20
2018-05-14T17:56:46.640Z,18.10
2018-05-14T17:59:12.875Z,18.10
2018-05-14T18:01:39.173Z,18.10
2018-05-14T18:04:06.151Z,18.10
2018-05-14T18:06:32.347Z,18.10
2018-05-14T18:08:59.303Z,18.30
2018-05-14T18:11:25.673Z,18.30
2018-05-14T18:13:52.610Z,18.30
2018-05-14T18:16:19.607Z,18.30
2018-05-14T18:18:46.860Z,18.30
2018-05-14T18:21:14.812Z,18.20
2018-05-14T18:23:49.816Z,18.20
2018-05-14T18:26:17.000Z,18.00
2018-05-14T18:28:43.322Z,17.80
2018-05-14T18:31:15.600Z,17.70
2018-05-14T18:33:41.872Z,17.50
2018-05-14T18:36:08.820Z,17.80
2018-05-14T18:38:35.865Z,17.80
2018-05-14T18:41:02.815Z,17.80
2018-05-14T18:43:29.796Z,17.70
2018-05-14T18:45:56.022Z,17.70
2018-05-14T18:48:22.214Z,17.80
2018-05-14T18:50:49.186Z,17.90
2018-05-14T18:53:15.378Z,17.80
2018-05-14T18:55:41.593Z,17.70
2018-05-14T18:58:07.879Z,17.70
2018-05-14T19:00:34.114Z,17.70
2018-05-14T19:03:00.349Z,17.50
2018-05-14T19:05:26.603Z,17.50
2018-05-14T19:07:52.859Z,17.40
2018-05-14T19:10:25.080Z,17.30
2018-05-14T19:12:51.305Z,17.20
2018-05-14T19:15:23.663Z,17.20
2018-05-14T19:17:55.970Z,17.10
2018-05-14T19:20:22.174Z,17.10
2018-05-14T19:22:54.314Z,17.00
2018-05-14T19:25:21.263Z,16.80
2018-05-14T19:27:54.395Z,16.70
2018-05-14T19:30:20.610Z,16.70
2018-05-14T19:32:46.864Z,16.60
2018-05-14T19:35:19.228Z,16.60
2018-05-14T19:37:45.451Z,16.60
2018-05-14T19:40:17.859Z,16.60
2018-05-14T19:42:44.094Z,16.50
2018-05-14T19:45:10.339Z,16.50
2018-05-14T19:47:36.691Z,16.50
2018-05-14T19:50:03.710Z,16.40
2018-05-14T19:52:30.073Z,16.40
2018-05-14T19:54:57.116Z,16.20
2018-05-14T19:57:24.079Z,16.10
2018-05-14T19:59:50.277Z,16.10
2018-05-14T20:02:16.498Z,16.00
2018-05-14T20:04:42.701Z,16.00
2018-05-14T20:07:08.963Z,15.90
2018-05-14T20:09:35.187Z,15.80
2018-05-14T20:12:01.438Z,15.70
2018-05-14T20:14:28.436Z,15.70
2018-05-14T20:16:54.665Z,15.60
2018-05-14T20:19:20.922Z,15.60
2018-05-14T20:21:47.144Z,15.60
2018-05-14T20:24:13.367Z,15.50
2018-05-14T20:26:39.648Z,15.60
2018-05-14T20:29:06.588Z,15.50
2018-05-14T20:31:33.553Z,15.40
2018-05-14T20:33:59.753Z,15.40
2018-05-14T20:37:37.185Z,15.30
2018-05-14T20:40:03.590Z,15.20
2018-05-14T20:42:30.800Z,15.10
2018-05-14T20:44:57.181Z,15.00
2018-05-14T20:47:24.313Z,14.90
2018-05-14T20:49:50.720Z,14.80
2018-05-14T20:52:17.183Z,15.00
2018-05-14T20:54:44.249Z,15.20
2018-05-14T20:57:11.364Z,15.10
2018-05-14T20:59:37.815Z,15.10
2018-05-14T21:02:04.214Z,15.00
2018-05-14T21:04:30.607Z,15.00
2018-05-14T21:06:57.773Z,15.00
2018-05-14T21:09:24.173Z,15.00
2018-05-14T21:11:50.604Z,14.90
2018-05-14T21:14:16.979Z,14.80
2018-05-14T21:16:43.409Z,14.80
2018-05-14T21:19:09.825Z,14.70
2018-05-14T21:21:36.966Z,14.50
2018-05-14T21:24:05.376Z,14.40
2018-05-14T21:26:33.727Z,14.60
2018-05-14T21:29:02.461Z,14.60
2018-05-14T21:31:31.842Z,14.70
2018-05-14T21:34:00.365Z,14.70
2018-05-14T21:36:28.831Z,14.70
2018-05-14T21:38:57.968Z,14.70
2018-05-14T21:41:26.734Z,14.60
2018-05-14T21:43:54.173Z,14.70
2018-05-14T21:46:20.502Z,14.70
2018-05-14T21:48:46.906Z,14.80
2018-05-14T21:51:14.026Z,14.90
2018-05-14T21:53:40.425Z,14.80
2018-05-14T21:56:06.821Z,14.90
2018-05-14T21:58:33.212Z,14.90
2018-05-14T22:00:59.611Z,14.90
2018-05-14T22:03:26.001Z,14.90
2018-05-14T22:05:52.429Z,14.90
2018-05-14T22:08:18.867Z,14.80
2018-05-14T22:10:45.298Z,14.70
2018-05-14T22:13:11.700Z,14.70
2018-05-14T22:15:38.089Z,14.60
2018-05-14T22:18:04.488Z,14.60
2018-05-14T22:20:30.899Z,14.50
2018-05-14T22:22:57.269Z,14.50
2018-05-14T22:25:23.723Z,14.40
2018-05-14T22:27:50.100Z,14.40
2018-05-14T22:30:16.523Z,14.50
2018-05-14T22:32:42.963Z,14.40
2018-05-14T22:35:09.353Z,14.40
2018-05-14T22:37:35.768Z,14.50
2018-05-14T22:40:02.165Z,14.40
2018-05-14T22:42:28.639Z,14.50
2018-05-14T22:44:55.029Z,14.50
2018-05-14T22:47:21.426Z,14.50
2018-05-14T22:49:47.814Z,14.50
2018-05-14T22:52:14.262Z,14.40
2018-05-14T22:54:40.649Z,14.40
2018-05-14T22:57:07.788Z,14.40
2018-05-14T22:59:34.165Z,14.40
2018-05-14T23:02:00.562Z,14.40
2018-05-14T23:04:26.949Z,14.30
2018-05-14T23:06:53.353Z,14.30
2018-05-14T23:09:19.788Z,14.20
2018-05-14T23:11:46.171Z,14.20
2018-05-14T23:14:12.573Z,14.10
2018-05-14T23:16:38.962Z,14.10
2018-05-14T23:19:05.355Z,14.00
2018-05-14T23:21:31.789Z,13.80
2018-05-14T23:23:58.161Z,13.60
2018-05-14T23:26:24.556Z,13.40
2018-05-14T23:28:50.927Z,13.30
2018-05-14T23:31:17.330Z,13.20
2018-05-14T23:33:43.775Z,13.10
2018-05-14T23:36:10.152Z,13.00
2018-05-14T23:38:37.299Z,12.80
2018-05-14T23:41:04.433Z,12.60
2018-05-14T23:43:30.854Z,12.60
2018-05-14T23:45:57.248Z,12.60
2018-05-14T23:48:23.631Z,12.40
2018-05-14T23:50:50.075Z,12.40
2018-05-14T23:53:16.440Z,12.40
2018-05-14T23:55:42.847Z,12.30
2018-05-14T23:58:09.972Z,12.10
